CMA CGM Butterfly — A8NO8 — position and weather

sailwx.info

Track history (hours):
 
Tides and Currents Weather Stations Pressure Air Temp Water Temp Dewpoint Dewpoint Depression Visibility Wind Speed Wind Dir Waves Ship Positions

CMA CGM Butterfly

Last reported at 2014-Dec-20 06:25 UTC. Time now 2014-Dec-23 02:59 UTC.
Position N 36°56' E 002°31'.

Length 350 m; draft 12.1 m.

Type: Ship (hazmat cat A). MMSI: 636091420.

Date/timePositionNaut miles runAvg speedWind from/ knotsBaromVisibWave heightAir tempDewpointWater temp
2014-Dec-20 06:25N 36°56' E 002°31'4220.6
2014-Dec-20 04:23N 36°49' E 001°39'4720.8
2014-Dec-20 02:08N 36°42' E 000°42'1220.8
2014-Dec-20 01:33N 36°40' E 000°27'2020.0
2014-Dec-20 00:33N 36°37' E 000°02'1919.6
2014-Dec-19 23:34N 36°34' W 000°22'1919.2
2014-Dec-19 22:33N 36°30' W 000°45'1919.2
2014-Dec-19 21:33N 36°27' W 001°09'2019.9
2014-Dec-19 20:33N 36°25' W 001°34'1919.2
2014-Dec-19 19:33N 36°22' W 001°57'1919.0
2014-Dec-19 18:33N 36°19' W 002°21'13719.3
2014-Dec-19 11:25N 35°60' W 005°09'1517.9
2014-Dec-19 10:33N 35°57' W 005°28'2 0.1
2014-Dec-18 08:33N 35°58' W 005°29'6 5.7
2014-Dec-18 07:34N 36°00' W 005°23'1110.5
2014-Dec-18 06:34N 36°03' W 005°10'9 0.4
2014-Dec-17 04:27N 36°10' W 005°04'1314.1
2014-Dec-17 03:33N 36°04' W 005°18'8 8.1
2014-Dec-17 02:33N 36°09' W 005°25'1 0.5
2014-Dec-17 01:33N 36°09' W 005°26'0 0.0
2014-Dec-17 00:33N 36°09' W 005°26'0 0.0
2014-Dec-16 23:33N 36°09' W 005°26'0 0.0
2014-Dec-16 22:33N 36°09' W 005°26'0 0.0
2014-Dec-16 21:33N 36°09' W 005°26'0 0.0
2014-Dec-16 20:33N 36°09' W 005°26'0 0.0
2014-Dec-16 19:33N 36°09' W 005°26'0 0.0
2014-Dec-16 18:33N 36°09' W 005°26'0 0.0
2014-Dec-16 17:33N 36°09' W 005°26'0 0.0
2014-Dec-16 16:33N 36°09' W 005°26'0 0.0
2014-Dec-16 15:30N 36°09' W 005°26'0 0.0
2014-Dec-16 14:27N 36°09' W 005°26'0 0.0
2014-Dec-16 13:27N 36°09' W 005°26'0 0.0
2014-Dec-16 12:33N 36°09' W 005°26'0 0.0
2014-Dec-16 11:33N 36°09' W 005°26'0 0.0
2014-Dec-16 10:33N 36°09' W 005°26'0 0.0
2014-Dec-16 09:33N 36°09' W 005°26'0 0.0
2014-Dec-16 08:30N 36°09' W 005°26'0 0.0
2014-Dec-16 07:33N 36°09' W 005°26'0 0.0
2014-Dec-16 06:33N 36°09' W 005°26'0 0.0
2014-Dec-16 05:33N 36°09' W 005°26'0 0.0
2014-Dec-16 04:24N 36°09' W 005°26'0 0.0
2014-Dec-16 03:24N 36°09' W 005°26'0 0.0
2014-Dec-16 02:33N 36°09' W 005°26'0 0.0
2014-Dec-16 01:09N 36°09' W 005°26'0 0.0
2014-Dec-16 00:06N 36°09' W 005°26'0 0.0
2014-Dec-15 23:33N 36°09' W 005°26'2 2.3
2014-Dec-15 22:34N 36°07' W 005°24'1110.5
2014-Dec-15 21:33N 36°05' W 005°11'41533.4
2014-Dec-15 09:08N 39°02' E 002°42'217129.5
2014-Dec-15 07:27N 37°08' W 001°13'1616.3
2014-Dec-15 06:30N 37°18' W 000°58'1616.7
2014-Dec-15 05:33N 37°28' W 000°42'1717.0
2014-Dec-15 04:33N 37°40' W 000°28'1717.2
2014-Dec-15 03:33N 37°53' W 000°13'11216.0
2014-Dec-14 20:33N 39°14' E 001°26'1615.7
2014-Dec-14 19:33N 39°24' E 001°41'1615.7
2014-Dec-14 18:33N 39°34' E 001°57'1615.6
2014-Dec-14 17:33N 39°44' E 002°13'1615.9
2014-Dec-14 16:33N 39°53' E 002°29'1615.9
2014-Dec-14 15:33N 40°03' E 002°46'1615.8
2014-Dec-14 14:33N 40°13' E 003°02'1815.9
2014-Dec-14 13:26N 40°23' E 003°20'1715.9
2014-Dec-14 12:22N 40°34' E 003°38'3616.0
2014-Dec-14 10:08N 40°55' E 004°16'17116.0
2014-Dec-13 23:25N 42°38' E 007°20'1415.3
2014-Dec-13 22:29N 42°46' E 007°36'1415.3
2014-Dec-13 21:33N 42°55' E 007°51'5115.9
2014-Dec-13 18:22N 43°25' E 008°47'1316.0
2014-Dec-13 17:33N 43°33' E 009°01'1616.1
2014-Dec-13 16:33N 43°43' E 009°18'1717.4
2014-Dec-13 15:33N 43°53' E 009°38'1414.0
2014-Dec-13 14:33N 44°03' E 009°52'3 3.5
2014-Dec-13 13:33N 44°06' E 009°51'0 0.0
2014-Dec-13 12:33N 44°06' E 009°51'0 0.0
2014-Dec-13 11:33N 44°06' E 009°51'0 0.0
2014-Dec-13 10:33N 44°06' E 009°51'0 0.0
2014-Dec-13 09:33N 44°06' E 009°51'0 0.0
2014-Dec-13 08:33N 44°06' E 009°51'0 0.0
2014-Dec-13 07:33N 44°06' E 009°51'0 0.0
2014-Dec-13 06:33N 44°06' E 009°51'0 0.0
2014-Dec-13 05:33N 44°06' E 009°51'0 0.0
2014-Dec-13 04:33N 44°06' E 009°51'0 0.0
2014-Dec-13 03:33N 44°06' E 009°51'0 0.0
2014-Dec-13 02:33N 44°06' E 009°51'0 0.0
2014-Dec-13 01:33N 44°06' E 009°51'0 0.0
2014-Dec-13 00:33N 44°06' E 009°51'0 0.0
2014-Dec-12 23:33N 44°06' E 009°51'0 0.0
2014-Dec-12 22:33N 44°06' E 009°51'0 0.0
2014-Dec-12 21:33N 44°06' E 009°51'0 0.0
2014-Dec-12 20:33N 44°06' E 009°51'0 0.0
2014-Dec-12 19:30N 44°06' E 009°51'0 0.0
2014-Dec-12 18:30N 44°06' E 009°51'0 0.0
2014-Dec-12 17:30N 44°06' E 009°51'0 0.0
2014-Dec-12 16:30N 44°06' E 009°51'0 0.0
2014-Dec-12 15:33N 44°06' E 009°51'0 0.0
2014-Dec-12 14:33N 44°06' E 009°51'3 3.1
2014-Dec-12 13:32N 44°03' E 009°52'4 4.5
2014-Dec-12 12:33N 43°59' E 009°53'1 0.7
2014-Dec-12 11:33N 43°59' E 009°52'0 0.1
2014-Dec-12 10:33N 43°59' E 009°52'0 0.1
2014-Dec-12 09:30N 43°58' E 009°52'0 0.1
2014-Dec-12 08:33N 43°58' E 009°52'0 0.0
2014-Dec-12 07:33N 43°58' E 009°52'0 0.0
2014-Dec-12 06:33N 43°58' E 009°52'0 0.1
2014-Dec-12 05:33N 43°58' E 009°52'0 0.1
2014-Dec-12 04:33N 43°58' E 009°52'0 0.1
2014-Dec-12 03:33N 43°58' E 009°52'0 0.1
2014-Dec-12 02:33N 43°58' E 009°52'0 0.1
2014-Dec-12 01:33N 43°58' E 009°52'0 0.0
2014-Dec-12 00:33N 43°58' E 009°52'2 2.2
2014-Dec-11 23:33N 43°57' E 009°50'10 9.9
2014-Dec-11 22:33N 44°01' E 009°38'1010.4
2014-Dec-11 21:33N 44°05' E 009°24'10 9.8
2014-Dec-11 20:33N 44°06' E 009°10'1010.0
2014-Dec-11 19:33N 44°08' E 008°57'5 5.0
2014-Dec-11 18:33N 44°10' E 008°51'5 5.2
2014-Dec-11 17:33N 44°16' E 008°51'10 9.7
2014-Dec-11 16:33N 44°24' E 008°43'3 3.4
2014-Dec-11 15:33N 44°25' E 008°48'0 0.0
2014-Dec-11 14:33N 44°25' E 008°48'0 0.0
2014-Dec-11 13:33N 44°25' E 008°48'0 0.0
2014-Dec-11 12:33N 44°25' E 008°48'0 0.0
2014-Dec-11 11:33N 44°25' E 008°48'0 0.0
2014-Dec-11 10:33N 44°25' E 008°48'0 0.0
2014-Dec-11 09:30N 44°25' E 008°48'0 0.0
2014-Dec-11 08:33N 44°25' E 008°48'0 0.0
2014-Dec-11 07:15N 44°25' E 008°48'0 0.0
2014-Dec-11 06:30N 44°25' E 008°48'0 0.0
2014-Dec-11 05:06N 44°25' E 008°48'0 0.0
2014-Dec-11 04:27N 44°25' E 008°48'0 0.0
2014-Dec-11 03:27N 44°25' E 008°48'0 0.0
2014-Dec-11 02:33N 44°25' E 008°48'0 0.0
2014-Dec-11 01:33N 44°25' E 008°48'0 0.0
2014-Dec-11 00:33N 44°25' E 008°48'0 0.0
2014-Dec-10 23:33N 44°25' E 008°48'0 0.0
2014-Dec-10 22:24N 44°25' E 008°48'0 0.0
2014-Dec-10 21:18N 44°25' E 008°48'0 0.0
2014-Dec-10 20:30N 44°25' E 008°48'0 0.0
2014-Dec-10 19:33N 44°25' E 008°48'0 0.0
2014-Dec-10 18:27N 44°25' E 008°48'0 0.0
2014-Dec-10 17:18N 44°25' E 008°48'0 0.0
2014-Dec-10 16:21N 44°25' E 008°48'0 0.0
2014-Dec-10 15:30N 44°25' E 008°48'0 0.0
2014-Dec-10 14:33N 44°25' E 008°48'0 0.0
2014-Dec-10 13:30N 44°25' E 008°48'0 0.0
2014-Dec-10 12:33N 44°25' E 008°48'0 0.0
2014-Dec-10 11:33N 44°25' E 008°48'0 0.0
2014-Dec-10 10:33N 44°25' E 008°48'0 0.0
2014-Dec-10 09:30N 44°25' E 008°48'0 0.0
2014-Dec-10 08:33N 44°25' E 008°48'0 0.0
2014-Dec-10 07:33N 44°25' E 008°48'0 0.0
2014-Dec-10 06:33N 44°25' E 008°48'  
Track history (hours):
 
Tides and Currents Weather Stations Pressure Air Temp Water Temp Dewpoint Dewpoint Depression Visibility Wind Speed Wind Dir Waves Ship Positions

CMA CGM Butterfly

Last reported at 2014-Dec-20 06:25 UTC. Time now 2014-Dec-23 02:59 UTC.
Position N 36°56' E 002°31'.

Length 350 m; draft 12.1 m.

Type: Ship (hazmat cat A). MMSI: 636091420.

Date/timePositionNaut miles runAvg speedWind from/ knotsBaromVisibWave heightAir tempDewpointWater temp
2014-Dec-20 06:25N 36°56' E 002°31'4220.6
2014-Dec-20 04:23N 36°49' E 001°39'4720.8
2014-Dec-20 02:08N 36°42' E 000°42'1220.8
2014-Dec-20 01:33N 36°40' E 000°27'2020.0
2014-Dec-20 00:33N 36°37' E 000°02'1919.6
2014-Dec-19 23:34N 36°34' W 000°22'1919.2
2014-Dec-19 22:33N 36°30' W 000°45'1919.2
2014-Dec-19 21:33N 36°27' W 001°09'2019.9
2014-Dec-19 20:33N 36°25' W 001°34'1919.2
2014-Dec-19 19:33N 36°22' W 001°57'1919.0
2014-Dec-19 18:33N 36°19' W 002°21'13719.3
2014-Dec-19 11:25N 35°60' W 005°09'1517.9
2014-Dec-19 10:33N 35°57' W 005°28'2 0.1
2014-Dec-18 08:33N 35°58' W 005°29'6 5.7
2014-Dec-18 07:34N 36°00' W 005°23'1110.5
2014-Dec-18 06:34N 36°03' W 005°10'9 0.4
2014-Dec-17 04:27N 36°10' W 005°04'1314.1
2014-Dec-17 03:33N 36°04' W 005°18'8 8.1
2014-Dec-17 02:33N 36°09' W 005°25'1 0.5
2014-Dec-17 01:33N 36°09' W 005°26'0 0.0
2014-Dec-17 00:33N 36°09' W 005°26'0 0.0
2014-Dec-16 23:33N 36°09' W 005°26'0 0.0
2014-Dec-16 22:33N 36°09' W 005°26'0 0.0
2014-Dec-16 21:33N 36°09' W 005°26'0 0.0
2014-Dec-16 20:33N 36°09' W 005°26'0 0.0
2014-Dec-16 19:33N 36°09' W 005°26'0 0.0
2014-Dec-16 18:33N 36°09' W 005°26'0 0.0
2014-Dec-16 17:33N 36°09' W 005°26'0 0.0
2014-Dec-16 16:33N 36°09' W 005°26'0 0.0
2014-Dec-16 15:30N 36°09' W 005°26'0 0.0
2014-Dec-16 14:27N 36°09' W 005°26'0 0.0
2014-Dec-16 13:27N 36°09' W 005°26'0 0.0
2014-Dec-16 12:33N 36°09' W 005°26'0 0.0
2014-Dec-16 11:33N 36°09' W 005°26'0 0.0
2014-Dec-16 10:33N 36°09' W 005°26'0 0.0
2014-Dec-16 09:33N 36°09' W 005°26'0 0.0
2014-Dec-16 08:30N 36°09' W 005°26'0 0.0
2014-Dec-16 07:33N 36°09' W 005°26'0 0.0
2014-Dec-16 06:33N 36°09' W 005°26'0 0.0
2014-Dec-16 05:33N 36°09' W 005°26'0 0.0
2014-Dec-16 04:24N 36°09' W 005°26'0 0.0
2014-Dec-16 03:24N 36°09' W 005°26'0 0.0
2014-Dec-16 02:33N 36°09' W 005°26'0 0.0
2014-Dec-16 01:09N 36°09' W 005°26'0 0.0
2014-Dec-16 00:06N 36°09' W 005°26'0 0.0
2014-Dec-15 23:33N 36°09' W 005°26'2 2.3
2014-Dec-15 22:34N 36°07' W 005°24'1110.5
2014-Dec-15 21:33N 36°05' W 005°11'41533.4
2014-Dec-15 09:08N 39°02' E 002°42'217129.5
2014-Dec-15 07:27N 37°08' W 001°13'1616.3
2014-Dec-15 06:30N 37°18' W 000°58'1616.7
2014-Dec-15 05:33N 37°28' W 000°42'1717.0
2014-Dec-15 04:33N 37°40' W 000°28'1717.2
2014-Dec-15 03:33N 37°53' W 000°13'11216.0
2014-Dec-14 20:33N 39°14' E 001°26'1615.7
2014-Dec-14 19:33N 39°24' E 001°41'1615.7
2014-Dec-14 18:33N 39°34' E 001°57'1615.6
2014-Dec-14 17:33N 39°44' E 002°13'1615.9
2014-Dec-14 16:33N 39°53' E 002°29'1615.9
2014-Dec-14 15:33N 40°03' E 002°46'1615.8
2014-Dec-14 14:33N 40°13' E 003°02'1815.9
2014-Dec-14 13:26N 40°23' E 003°20'1715.9
2014-Dec-14 12:22N 40°34' E 003°38'3616.0
2014-Dec-14 10:08N 40°55' E 004°16'17116.0
2014-Dec-13 23:25N 42°38' E 007°20'1415.3
2014-Dec-13 22:29N 42°46' E 007°36'1415.3
2014-Dec-13 21:33N 42°55' E 007°51'5115.9
2014-Dec-13 18:22N 43°25' E 008°47'1316.0
2014-Dec-13 17:33N 43°33' E 009°01'1616.1
2014-Dec-13 16:33N 43°43' E 009°18'1717.4
2014-Dec-13 15:33N 43°53' E 009°38'1414.0
2014-Dec-13 14:33N 44°03' E 009°52'3 3.5
2014-Dec-13 13:33N 44°06' E 009°51'0 0.0
2014-Dec-13 12:33N 44°06' E 009°51'0 0.0
2014-Dec-13 11:33N 44°06' E 009°51'0 0.0
2014-Dec-13 10:33N 44°06' E 009°51'0 0.0
2014-Dec-13 09:33N 44°06' E 009°51'0 0.0
2014-Dec-13 08:33N 44°06' E 009°51'0 0.0
2014-Dec-13 07:33N 44°06' E 009°51'0 0.0
2014-Dec-13 06:33N 44°06' E 009°51'0 0.0
2014-Dec-13 05:33N 44°06' E 009°51'0 0.0
2014-Dec-13 04:33N 44°06' E 009°51'0 0.0
2014-Dec-13 03:33N 44°06' E 009°51'0 0.0
2014-Dec-13 02:33N 44°06' E 009°51'0 0.0
2014-Dec-13 01:33N 44°06' E 009°51'0 0.0
2014-Dec-13 00:33N 44°06' E 009°51'0 0.0
2014-Dec-12 23:33N 44°06' E 009°51'0 0.0
2014-Dec-12 22:33N 44°06' E 009°51'0 0.0
2014-Dec-12 21:33N 44°06' E 009°51'0 0.0
2014-Dec-12 20:33N 44°06' E 009°51'0 0.0
2014-Dec-12 19:30N 44°06' E 009°51'0 0.0
2014-Dec-12 18:30N 44°06' E 009°51'0 0.0
2014-Dec-12 17:30N 44°06' E 009°51'0 0.0
2014-Dec-12 16:30N 44°06' E 009°51'0 0.0
2014-Dec-12 15:33N 44°06' E 009°51'0 0.0
2014-Dec-12 14:33N 44°06' E 009°51'3 3.1
2014-Dec-12 13:32N 44°03' E 009°52'4 4.5
2014-Dec-12 12:33N 43°59' E 009°53'1 0.7
2014-Dec-12 11:33N 43°59' E 009°52'0 0.1
2014-Dec-12 10:33N 43°59' E 009°52'0 0.1
2014-Dec-12 09:30N 43°58' E 009°52'0 0.1
2014-Dec-12 08:33N 43°58' E 009°52'0 0.0
2014-Dec-12 07:33N 43°58' E 009°52'0 0.0
2014-Dec-12 06:33N 43°58' E 009°52'0 0.1
2014-Dec-12 05:33N 43°58' E 009°52'0 0.1
2014-Dec-12 04:33N 43°58' E 009°52'0 0.1
2014-Dec-12 03:33N 43°58' E 009°52'0 0.1
2014-Dec-12 02:33N 43°58' E 009°52'0 0.1
2014-Dec-12 01:33N 43°58' E 009°52'0 0.0
2014-Dec-12 00:33N 43°58' E 009°52'2 2.2
2014-Dec-11 23:33N 43°57' E 009°50'10 9.9
2014-Dec-11 22:33N 44°01' E 009°38'1010.4
2014-Dec-11 21:33N 44°05' E 009°24'10 9.8
2014-Dec-11 20:33N 44°06' E 009°10'1010.0
2014-Dec-11 19:33N 44°08' E 008°57'5 5.0
2014-Dec-11 18:33N 44°10' E 008°51'5 5.2
2014-Dec-11 17:33N 44°16' E 008°51'10 9.7
2014-Dec-11 16:33N 44°24' E 008°43'3 3.4
2014-Dec-11 15:33N 44°25' E 008°48'0 0.0
2014-Dec-11 14:33N 44°25' E 008°48'0 0.0
2014-Dec-11 13:33N 44°25' E 008°48'0 0.0
2014-Dec-11 12:33N 44°25' E 008°48'0 0.0
2014-Dec-11 11:33N 44°25' E 008°48'0 0.0
2014-Dec-11 10:33N 44°25' E 008°48'0 0.0
2014-Dec-11 09:30N 44°25' E 008°48'0 0.0
2014-Dec-11 08:33N 44°25' E 008°48'0 0.0
2014-Dec-11 07:15N 44°25' E 008°48'0 0.0
2014-Dec-11 06:30N 44°25' E 008°48'0 0.0
2014-Dec-11 05:06N 44°25' E 008°48'0 0.0
2014-Dec-11 04:27N 44°25' E 008°48'0 0.0
2014-Dec-11 03:27N 44°25' E 008°48'0 0.0
2014-Dec-11 02:33N 44°25' E 008°48'0 0.0
2014-Dec-11 01:33N 44°25' E 008°48'0 0.0
2014-Dec-11 00:33N 44°25' E 008°48'0 0.0
2014-Dec-10 23:33N 44°25' E 008°48'0 0.0
2014-Dec-10 22:24N 44°25' E 008°48'0 0.0
2014-Dec-10 21:18N 44°25' E 008°48'0 0.0
2014-Dec-10 20:30N 44°25' E 008°48'0 0.0
2014-Dec-10 19:33N 44°25' E 008°48'0 0.0
2014-Dec-10 18:27N 44°25' E 008°48'0 0.0
2014-Dec-10 17:18N 44°25' E 008°48'0 0.0
2014-Dec-10 16:21N 44°25' E 008°48'0 0.0
2014-Dec-10 15:30N 44°25' E 008°48'0 0.0
2014-Dec-10 14:33N 44°25' E 008°48'0 0.0
2014-Dec-10 13:30N 44°25' E 008°48'0 0.0
2014-Dec-10 12:33N 44°25' E 008°48'0 0.0
2014-Dec-10 11:33N 44°25' E 008°48'0 0.0
2014-Dec-10 10:33N 44°25' E 008°48'0 0.0
2014-Dec-10 09:30N 44°25' E 008°48'0 0.0
2014-Dec-10 08:33N 44°25' E 008°48'0 0.0
2014-Dec-10 07:33N 44°25' E 008°48'0 0.0
2014-Dec-10 06:33N 44°25' E 008°48'  

Dump ship's entire track history